sensor_id;sensor_type;location;lat;lon;timestamp;pressure;altitude;pressure_sealevel;temperature;humidity
38289;BME280;24092;53.370;-6.588;2022-07-24T00:02:07;100145.24;;;13.16;100.00
38289;BME280;24092;53.370;-6.588;2022-07-24T00:04:35;100139.48;;;12.87;100.00
38289;BME280;24092;53.370;-6.588;2022-07-24T00:07:02;100144.55;;;12.66;100.00
38289;BME280;24092;53.370;-6.588;2022-07-24T00:09:29;100142.62;;;12.07;100.00
38289;BME280;24092;53.370;-6.588;2022-07-24T00:11:57;100145.39;;;12.79;100.00
38289;BME280;24092;53.370;-6.588;2022-07-24T00:14:24;100140.85;;;12.61;100.00
38289;BME280;24092;53.370;-6.588;2022-07-24T00:16:51;100137.08;;;12.29;100.00
38289;BME280;24092;53.370;-6.588;2022-07-24T00:19:17;100145.72;;;12.49;100.00
38289;BME280;24092;53.370;-6.588;2022-07-24T00:21:44;100154.92;;;12.47;100.00
38289;BME280;24092;53.370;-6.588;2022-07-24T00:24:11;100151.64;;;12.36;100.00
38289;BME280;24092;53.370;-6.588;2022-07-24T00:26:38;100150.87;;;12.25;100.00
38289;BME280;24092;53.370;-6.588;2022-07-24T00:29:05;100155.96;;;12.39;100.00
38289;BME280;24092;53.370;-6.588;2022-07-24T00:31:32;100161.43;;;12.28;100.00
38289;BME280;24092;53.370;-6.588;2022-07-24T00:34:00;100151.42;;;12.22;100.00
38289;BME280;24092;53.370;-6.588;2022-07-24T00:36:27;100149.81;;;12.16;100.00
38289;BME280;24092;53.370;-6.588;2022-07-24T00:38:54;100149.32;;;11.98;100.00
38289;BME280;24092;53.370;-6.588;2022-07-24T00:41:21;100142.21;;;12.41;100.00
38289;BME280;24092;53.370;-6.588;2022-07-24T00:44:06;100144.28;;;11.97;100.00
38289;BME280;24092;53.370;-6.588;2022-07-24T00:46:35;100141.45;;;12.15;100.00
38289;BME280;24092;53.370;-6.588;2022-07-24T00:49:04;100135.98;;;12.25;100.00
38289;BME280;24092;53.370;-6.588;2022-07-24T00:51:33;100134.52;;;12.47;100.00
38289;BME280;24092;53.370;-6.588;2022-07-24T00:54:03;100130.32;;;12.62;100.00
38289;BME280;24092;53.370;-6.588;2022-07-24T00:56:30;100136.41;;;12.40;100.00
38289;BME280;24092;53.370;-6.588;2022-07-24T00:58:59;100134.45;;;12.29;100.00
38289;BME280;24092;53.370;-6.588;2022-07-24T01:01:27;100129.86;;;12.57;100.00
38289;BME280;24092;53.370;-6.588;2022-07-24T01:03:55;100131.83;;;12.51;100.00
38289;BME280;24092;53.370;-6.588;2022-07-24T01:06:23;100128.63;;;12.50;100.00
38289;BME280;24092;53.370;-6.588;2022-07-24T01:08:50;100132.45;;;12.31;100.00
38289;BME280;24092;53.370;-6.588;2022-07-24T01:11:18;100141.87;;;12.12;100.00
38289;BME280;24092;53.370;-6.588;2022-07-24T01:13:47;100143.19;;;12.40;100.00
38289;BME280;24092;53.370;-6.588;2022-07-24T01:16:15;100143.62;;;11.98;100.00
38289;BME280;24092;53.370;-6.588;2022-07-24T01:18:42;100133.12;;;12.41;100.00
38289;BME280;24092;53.370;-6.588;2022-07-24T01:21:09;100138.84;;;12.34;100.00
38289;BME280;24092;53.370;-6.588;2022-07-24T01:23:37;100127.53;;;11.90;100.00
38289;BME280;24092;53.370;-6.588;2022-07-24T01:26:06;100144.63;;;12.11;100.00
38289;BME280;24092;53.370;-6.588;2022-07-24T01:28:34;100144.42;;;11.97;100.00
38289;BME280;24092;53.370;-6.588;2022-07-24T01:31:02;100132.48;;;12.03;100.00
38289;BME280;24092;53.370;-6.588;2022-07-24T01:33:30;100130.72;;;11.99;100.00
38289;BME280;24092;53.370;-6.588;2022-07-24T01:35:57;100137.35;;;11.90;100.00
38289;BME280;24092;53.370;-6.588;2022-07-24T01:38:24;100131.93;;;12.26;100.00
38289;BME280;24092;53.370;-6.588;2022-07-24T01:40:52;100133.41;;;11.81;100.00
38289;BME280;24092;53.370;-6.588;2022-07-24T01:43:20;100146.11;;;12.42;100.00
38289;BME280;24092;53.370;-6.588;2022-07-24T01:45:47;100153.95;;;11.85;100.00
38289;BME280;24092;53.370;-6.588;2022-07-24T01:48:14;100155.40;;;11.85;100.00
38289;BME280;24092;53.370;-6.588;2022-07-24T01:50:41;100153.41;;;12.11;100.00
38289;BME280;24092;53.370;-6.588;2022-07-24T01:53:08;100150.37;;;11.92;100.00
38289;BME280;24092;53.370;-6.588;2022-07-24T01:55:35;100152.74;;;12.20;100.00
38289;BME280;24092;53.370;-6.588;2022-07-24T01:58:01;100145.96;;;12.45;100.00
38289;BME280;24092;53.370;-6.588;2022-07-24T02:00:29;100149.17;;;12.25;100.00
38289;BME280;24092;53.370;-6.588;2022-07-24T02:02:56;100148.01;;;12.41;100.00
38289;BME280;24092;53.370;-6.588;2022-07-24T02:05:24;100148.04;;;12.44;100.00
38289;BME280;24092;53.370;-6.588;2022-07-24T02:07:55;100151.56;;;12.51;100.00
38289;BME280;24092;53.370;-6.588;2022-07-24T02:10:23;100153.43;;;12.53;100.00
38289;BME280;24092;53.370;-6.588;2022-07-24T02:12:51;100154.15;;;12.12;100.00
38289;BME280;24092;53.370;-6.588;2022-07-24T02:15:17;100153.87;;;12.46;100.00
38289;BME280;24092;53.370;-6.588;2022-07-24T02:17:46;100152.37;;;12.54;100.00
38289;BME280;24092;53.370;-6.588;2022-07-24T02:20:14;100151.32;;;12.06;100.00
38289;BME280;24092;53.370;-6.588;2022-07-24T02:22:41;100147.64;;;12.18;100.00
38289;BME280;24092;53.370;-6.588;2022-07-24T02:25:10;100147.95;;;11.86;100.00
38289;BME280;24092;53.370;-6.588;2022-07-24T02:27:38;100142.75;;;12.05;100.00
38289;BME280;24092;53.370;-6.588;2022-07-24T02:30:08;100140.32;;;12.18;100.00
38289;BME280;24092;53.370;-6.588;2022-07-24T02:32:36;100145.05;;;12.08;100.00
38289;BME280;24092;53.370;-6.588;2022-07-24T02:35:04;100144.66;;;12.28;100.00
38289;BME280;24092;53.370;-6.588;2022-07-24T02:37:32;100146.91;;;11.68;100.00
38289;BME280;24092;53.370;-6.588;2022-07-24T02:39:59;100145.35;;;11.96;100.00
38289;BME280;24092;53.370;-6.588;2022-07-24T02:42:26;100147.42;;;11.54;100.00
38289;BME280;24092;53.370;-6.588;2022-07-24T02:44:53;100147.46;;;11.38;100.00
38289;BME280;24092;53.370;-6.588;2022-07-24T02:47:20;100146.71;;;11.82;100.00
38289;BME280;24092;53.370;-6.588;2022-07-24T02:49:47;100147.74;;;11.62;100.00
38289;BME280;24092;53.370;-6.588;2022-07-24T02:52:14;100146.82;;;12.07;100.00
38289;BME280;24092;53.370;-6.588;2022-07-24T02:54:41;100145.69;;;12.12;100.00
38289;BME280;24092;53.370;-6.588;2022-07-24T02:57:08;100142.02;;;12.08;100.00
38289;BME280;24092;53.370;-6.588;2022-07-24T02:59:34;100137.40;;;11.93;100.00
38289;BME280;24092;53.370;-6.588;2022-07-24T03:02:01;100134.06;;;12.27;100.00
38289;BME280;24092;53.370;-6.588;2022-07-24T03:04:29;100135.38;;;11.78;100.00
38289;BME280;24092;53.370;-6.588;2022-07-24T03:06:57;100133.61;;;11.65;100.00
38289;BME280;24092;53.370;-6.588;2022-07-24T03:09:24;100133.29;;;11.85;100.00
38289;BME280;24092;53.370;-6.588;2022-07-24T03:11:52;100130.66;;;11.67;100.00
38289;BME280;24092;53.370;-6.588;2022-07-24T03:14:19;100128.26;;;11.68;100.00
38289;BME280;24092;53.370;-6.588;2022-07-24T03:16:46;100128.58;;;11.55;100.00
38289;BME280;24092;53.370;-6.588;2022-07-24T03:19:12;100130.33;;;11.57;100.00
38289;BME280;24092;53.370;-6.588;2022-07-24T03:21:40;100132.46;;;11.32;100.00
38289;BME280;24092;53.370;-6.588;2022-07-24T03:24:07;100133.12;;;10.96;100.00
38289;BME280;24092;53.370;-6.588;2022-07-24T03:26:34;100133.27;;;11.28;100.00
38289;BME280;24092;53.370;-6.588;2022-07-24T03:29:01;100131.30;;;11.82;100.00
38289;BME280;24092;53.370;-6.588;2022-07-24T03:31:28;100128.15;;;11.63;100.00
38289;BME280;24092;53.370;-6.588;2022-07-24T03:33:55;100127.51;;;11.42;100.00
38289;BME280;24092;53.370;-6.588;2022-07-24T03:36:22;100131.41;;;11.57;100.00
38289;BME280;24092;53.370;-6.588;2022-07-24T03:38:48;100127.70;;;11.68;100.00
38289;BME280;24092;53.370;-6.588;2022-07-24T03:41:15;100134.49;;;12.47;100.00
38289;BME280;24092;53.370;-6.588;2022-07-24T03:43:42;100131.09;;;11.78;100.00
38289;BME280;24092;53.370;-6.588;2022-07-24T03:46:09;100127.72;;;11.69;100.00
38289;BME280;24092;53.370;-6.588;2022-07-24T03:48:36;100123.84;;;11.27;100.00
38289;BME280;24092;53.370;-6.588;2022-07-24T03:51:04;100127.25;;;11.32;100.00
38289;BME280;24092;53.370;-6.588;2022-07-24T03:53:31;100126.32;;;11.14;100.00
38289;BME280;24092;53.370;-6.588;2022-07-24T03:55:58;100130.11;;;11.32;100.00
38289;BME280;24092;53.370;-6.588;2022-07-24T03:58:25;100133.45;;;11.85;100.00
38289;BME280;24092;53.370;-6.588;2022-07-24T04:00:52;100135.05;;;11.60;100.00
38289;BME280;24092;53.370;-6.588;2022-07-24T04:03:18;100132.80;;;11.51;100.00
38289;BME280;24092;53.370;-6.588;2022-07-24T04:05:45;100130.14;;;11.82;100.00
38289;BME280;24092;53.370;-6.588;2022-07-24T04:08:12;100132.75;;;11.54;100.00
38289;BME280;24092;53.370;-6.588;2022-07-24T04:10:39;100132.59;;;11.47;100.00
38289;BME280;24092;53.370;-6.588;2022-07-24T04:13:07;100132.91;;;11.94;100.00
38289;BME280;24092;53.370;-6.588;2022-07-24T04:15:34;100127.66;;;11.81;100.00
38289;BME280;24092;53.370;-6.588;2022-07-24T04:18:01;100129.56;;;11.88;100.00
38289;BME280;24092;53.370;-6.588;2022-07-24T04:20:28;100132.34;;;11.31;100.00
38289;BME280;24092;53.370;-6.588;2022-07-24T04:22:55;100139.99;;;11.27;100.00
38289;BME280;24092;53.370;-6.588;2022-07-24T04:25:22;100146.86;;;11.34;100.00
38289;BME280;24092;53.370;-6.588;2022-07-24T04:27:50;100145.27;;;11.56;100.00
38289;BME280;24092;53.370;-6.588;2022-07-24T04:30:17;100142.34;;;11.79;100.00
38289;BME280;24092;53.370;-6.588;2022-07-24T04:32:43;100138.66;;;11.86;100.00
38289;BME280;24092;53.370;-6.588;2022-07-24T04:35:10;100138.10;;;12.32;100.00
38289;BME280;24092;53.370;-6.588;2022-07-24T04:37:37;100134.80;;;12.25;100.00
38289;BME280;24092;53.370;-6.588;2022-07-24T04:40:05;100131.65;;;11.94;100.00
38289;BME280;24092;53.370;-6.588;2022-07-24T04:42:32;100134.82;;;11.62;100.00
38289;BME280;24092;53.370;-6.588;2022-07-24T04:45:00;100136.58;;;12.09;100.00
38289;BME280;24092;53.370;-6.588;2022-07-24T04:47:27;100135.17;;;12.04;100.00
38289;BME280;24092;53.370;-6.588;2022-07-24T04:49:54;100137.35;;;11.64;100.00
38289;BME280;24092;53.370;-6.588;2022-07-24T04:52:21;100134.14;;;12.08;100.00
38289;BME280;24092;53.370;-6.588;2022-07-24T04:54:49;100134.07;;;12.09;100.00
38289;BME280;24092;53.370;-6.588;2022-07-24T04:57:15;100133.82;;;11.61;100.00
38289;BME280;24092;53.370;-6.588;2022-07-24T04:59:43;100132.88;;;11.57;100.00
38289;BME280;24092;53.370;-6.588;2022-07-24T05:02:10;100129.22;;;11.37;100.00
38289;BME280;24092;53.370;-6.588;2022-07-24T05:04:37;100130.23;;;11.64;100.00
38289;BME280;24092;53.370;-6.588;2022-07-24T05:07:04;100128.36;;;11.60;100.00
38289;BME280;24092;53.370;-6.588;2022-07-24T05:09:31;100127.48;;;11.59;100.00
38289;BME280;24092;53.370;-6.588;2022-07-24T05:11:59;100125.21;;;11.21;100.00
38289;BME280;24092;53.370;-6.588;2022-07-24T05:14:26;100127.85;;;11.42;100.00
38289;BME280;24092;53.370;-6.588;2022-07-24T05:16:53;100128.77;;;11.90;100.00
38289;BME280;24092;53.370;-6.588;2022-07-24T05:19:20;100122.96;;;12.19;100.00
38289;BME280;24092;53.370;-6.588;2022-07-24T05:21:48;100123.48;;;11.71;100.00
38289;BME280;24092;53.370;-6.588;2022-07-24T05:24:15;100125.16;;;11.35;100.00
38289;BME280;24092;53.370;-6.588;2022-07-24T05:26:42;100121.39;;;11.31;100.00
38289;BME280;24092;53.370;-6.588;2022-07-24T05:29:09;100116.96;;;11.40;100.00
38289;BME280;24092;53.370;-6.588;2022-07-24T05:31:36;100123.28;;;11.20;100.00
38289;BME280;24092;53.370;-6.588;2022-07-24T05:34:03;100123.95;;;11.51;100.00
38289;BME280;24092;53.370;-6.588;2022-07-24T05:36:30;100118.57;;;11.62;100.00
38289;BME280;24092;53.370;-6.588;2022-07-24T05:38:57;100116.41;;;12.13;100.00
38289;BME280;24092;53.370;-6.588;2022-07-24T05:41:25;100108.93;;;11.47;100.00
38289;BME280;24092;53.370;-6.588;2022-07-24T05:43:52;100108.73;;;11.69;100.00
38289;BME280;24092;53.370;-6.588;2022-07-24T05:46:19;100109.68;;;11.25;100.00
38289;BME280;24092;53.370;-6.588;2022-07-24T05:48:46;100103.10;;;11.33;100.00
38289;BME280;24092;53.370;-6.588;2022-07-24T05:51:13;100097.98;;;12.05;100.00
38289;BME280;24092;53.370;-6.588;2022-07-24T05:53:40;100094.63;;;11.65;100.00
38289;BME280;24092;53.370;-6.588;2022-07-24T05:56:07;100092.59;;;11.47;100.00
38289;BME280;24092;53.370;-6.588;2022-07-24T05:58:35;100089.84;;;11.47;100.00
38289;BME280;24092;53.370;-6.588;2022-07-24T06:01:03;100083.85;;;11.87;100.00
38289;BME280;24092;53.370;-6.588;2022-07-24T06:03:30;100075.47;;;11.87;100.00
38289;BME280;24092;53.370;-6.588;2022-07-24T06:05:57;100079.14;;;11.42;100.00
38289;BME280;24092;53.370;-6.588;2022-07-24T06:08:24;100072.77;;;11.85;100.00
38289;BME280;24092;53.370;-6.588;2022-07-24T06:10:51;100073.82;;;11.87;100.00
38289;BME280;24092;53.370;-6.588;2022-07-24T06:13:19;100066.66;;;12.29;100.00
38289;BME280;24092;53.370;-6.588;2022-07-24T06:15:45;100071.16;;;12.37;100.00
38289;BME280;24092;53.370;-6.588;2022-07-24T06:18:12;100070.01;;;12.18;100.00
38289;BME280;24092;53.370;-6.588;2022-07-24T06:20:39;100068.04;;;12.28;100.00
38289;BME280;24092;53.370;-6.588;2022-07-24T06:23:06;100068.22;;;12.23;100.00
38289;BME280;24092;53.370;-6.588;2022-07-24T06:25:33;100058.81;;;12.10;100.00
38289;BME280;24092;53.370;-6.588;2022-07-24T06:28:01;100060.16;;;11.82;100.00
38289;BME280;24092;53.370;-6.588;2022-07-24T06:30:29;100053.42;;;12.29;100.00
38289;BME280;24092;53.370;-6.588;2022-07-24T06:32:58;100058.38;;;12.73;100.00
38289;BME280;24092;53.370;-6.588;2022-07-24T06:35:27;100067.36;;;12.44;100.00
38289;BME280;24092;53.370;-6.588;2022-07-24T06:37:56;100066.86;;;12.42;100.00
38289;BME280;24092;53.370;-6.588;2022-07-24T06:40:23;100073.52;;;11.96;100.00
38289;BME280;24092;53.370;-6.588;2022-07-24T06:42:50;100072.80;;;12.41;100.00
38289;BME280;24092;53.370;-6.588;2022-07-24T06:45:18;100071.05;;;12.93;100.00
38289;BME280;24092;53.370;-6.588;2022-07-24T06:47:45;100063.77;;;12.69;100.00
38289;BME280;24092;53.370;-6.588;2022-07-24T06:50:13;100060.30;;;12.65;100.00
38289;BME280;24092;53.370;-6.588;2022-07-24T06:52:40;100058.00;;;12.66;100.00
38289;BME280;24092;53.370;-6.588;2022-07-24T06:55:09;100053.81;;;12.78;100.00
38289;BME280;24092;53.370;-6.588;2022-07-24T06:57:37;100053.38;;;13.17;100.00
38289;BME280;24092;53.370;-6.588;2022-07-24T07:00:06;100055.81;;;12.88;100.00
38289;BME280;24092;53.370;-6.588;2022-07-24T07:02:34;100050.76;;;13.10;100.00
38289;BME280;24092;53.370;-6.588;2022-07-24T07:05:01;100051.29;;;12.97;100.00
38289;BME280;24092;53.370;-6.588;2022-07-24T07:07:30;100045.87;;;12.92;100.00
38289;BME280;24092;53.370;-6.588;2022-07-24T07:09:58;100052.14;;;13.06;100.00
38289;BME280;24092;53.370;-6.588;2022-07-24T07:12:25;100049.13;;;12.58;100.00
38289;BME280;24092;53.370;-6.588;2022-07-24T07:14:52;100048.85;;;13.14;100.00
38289;BME280;24092;53.370;-6.588;2022-07-24T07:17:19;100038.87;;;12.98;100.00
38289;BME280;24092;53.370;-6.588;2022-07-24T07:19:46;100034.48;;;12.95;100.00
38289;BME280;24092;53.370;-6.588;2022-07-24T07:22:13;100038.82;;;13.62;100.00
38289;BME280;24092;53.370;-6.588;2022-07-24T07:24:40;100037.49;;;13.97;100.00
38289;BME280;24092;53.370;-6.588;2022-07-24T07:27:07;100047.25;;;13.43;100.00
38289;BME280;24092;53.370;-6.588;2022-07-24T07:29:35;100051.19;;;13.37;100.00
38289;BME280;24092;53.370;-6.588;2022-07-24T07:32:03;100047.57;;;13.90;100.00
38289;BME280;24092;53.370;-6.588;2022-07-24T07:34:30;100049.20;;;13.80;100.00
38289;BME280;24092;53.370;-6.588;2022-07-24T07:36:58;100040.81;;;13.02;100.00
38289;BME280;24092;53.370;-6.588;2022-07-24T07:39:25;100039.15;;;13.00;100.00
38289;BME280;24092;53.370;-6.588;2022-07-24T07:41:52;100043.74;;;12.85;100.00
38289;BME280;24092;53.370;-6.588;2022-07-24T07:44:19;100042.93;;;12.89;100.00
38289;BME280;24092;53.370;-6.588;2022-07-24T07:46:46;100036.27;;;13.10;100.00
38289;BME280;24092;53.370;-6.588;2022-07-24T07:49:12;100042.23;;;13.21;100.00
38289;BME280;24092;53.370;-6.588;2022-07-24T07:51:39;100041.43;;;13.24;100.00
38289;BME280;24092;53.370;-6.588;2022-07-24T07:54:06;100036.74;;;13.85;100.00
38289;BME280;24092;53.370;-6.588;2022-07-24T07:56:33;100039.00;;;13.59;100.00
38289;BME280;24092;53.370;-6.588;2022-07-24T07:58:59;100038.91;;;13.98;100.00
38289;BME280;24092;53.370;-6.588;2022-07-24T08:01:27;100031.97;;;13.43;100.00
38289;BME280;24092;53.370;-6.588;2022-07-24T08:03:54;100033.60;;;13.40;100.00
38289;BME280;24092;53.370;-6.588;2022-07-24T08:06:20;100032.46;;;13.60;100.00
38289;BME280;24092;53.370;-6.588;2022-07-24T08:08:47;100022.00;;;13.48;100.00
38289;BME280;24092;53.370;-6.588;2022-07-24T08:11:14;100022.80;;;13.69;100.00
38289;BME280;24092;53.370;-6.588;2022-07-24T08:13:41;100022.70;;;13.18;100.00
38289;BME280;24092;53.370;-6.588;2022-07-24T08:16:08;100023.70;;;13.59;100.00
38289;BME280;24092;53.370;-6.588;2022-07-24T08:18:36;100023.00;;;13.36;100.00
38289;BME280;24092;53.370;-6.588;2022-07-24T08:21:03;100024.27;;;13.11;100.00
38289;BME280;24092;53.370;-6.588;2022-07-24T08:23:30;100011.14;;;13.57;100.00
38289;BME280;24092;53.370;-6.588;2022-07-24T08:25:57;100013.11;;;12.93;100.00
38289;BME280;24092;53.370;-6.588;2022-07-24T08:28:25;100024.21;;;13.48;100.00
38289;BME280;24092;53.370;-6.588;2022-07-24T08:30:52;100016.50;;;13.05;100.00
38289;BME280;24092;53.370;-6.588;2022-07-24T08:33:19;100016.15;;;13.36;100.00
38289;BME280;24092;53.370;-6.588;2022-07-24T08:35:46;100011.40;;;13.39;100.00
38289;BME280;24092;53.370;-6.588;2022-07-24T08:38:13;100003.68;;;13.78;100.00
38289;BME280;24092;53.370;-6.588;2022-07-24T08:40:41;99998.90;;;13.52;100.00
38289;BME280;24092;53.370;-6.588;2022-07-24T08:43:09;99991.64;;;13.66;100.00
38289;BME280;24092;53.370;-6.588;2022-07-24T08:45:39;99984.69;;;14.09;100.00
38289;BME280;24092;53.370;-6.588;2022-07-24T08:48:09;99989.36;;;13.83;100.00
38289;BME280;24092;53.370;-6.588;2022-07-24T08:50:38;99976.43;;;13.81;100.00
38289;BME280;24092;53.370;-6.588;2022-07-24T08:53:06;99979.16;;;14.42;100.00
38289;BME280;24092;53.370;-6.588;2022-07-24T08:55:33;99970.03;;;14.46;100.00
38289;BME280;24092;53.370;-6.588;2022-07-24T08:58:01;99966.39;;;14.49;100.00
38289;BME280;24092;53.370;-6.588;2022-07-24T09:00:31;99964.11;;;15.05;100.00
38289;BME280;24092;53.370;-6.588;2022-07-24T09:02:59;99964.66;;;14.70;100.00
38289;BME280;24092;53.370;-6.588;2022-07-24T09:05:26;99961.56;;;15.18;100.00
38289;BME280;24092;53.370;-6.588;2022-07-24T09:08:07;99952.33;;;15.57;100.00
38289;BME280;24092;53.370;-6.588;2022-07-24T09:10:34;99949.30;;;15.41;100.00
38289;BME280;24092;53.370;-6.588;2022-07-24T09:13:13;99945.06;;;14.97;100.00
38289;BME280;24092;53.370;-6.588;2022-07-24T09:15:44;99942.64;;;14.73;100.00
38289;BME280;24092;53.370;-6.588;2022-07-24T09:18:25;99938.62;;;14.32;100.00
38289;BME280;24092;53.370;-6.588;2022-07-24T09:20:53;99930.27;;;14.62;100.00
38289;BME280;24092;53.370;-6.588;2022-07-24T09:23:21;99929.17;;;14.81;100.00
38289;BME280;24092;53.370;-6.588;2022-07-24T09:25:51;99934.06;;;14.91;100.00
38289;BME280;24092;53.370;-6.588;2022-07-24T09:28:19;99925.81;;;14.49;100.00
38289;BME280;24092;53.370;-6.588;2022-07-24T09:30:47;99918.68;;;14.72;100.00
38289;BME280;24092;53.370;-6.588;2022-07-24T09:33:16;99916.64;;;14.91;100.00
38289;BME280;24092;53.370;-6.588;2022-07-24T09:35:46;99916.85;;;14.59;100.00
38289;BME280;24092;53.370;-6.588;2022-07-24T09:38:15;99915.01;;;14.71;100.00
38289;BME280;24092;53.370;-6.588;2022-07-24T09:40:45;99915.01;;;14.82;100.00
38289;BME280;24092;53.370;-6.588;2022-07-24T09:43:14;99904.86;;;14.96;100.00
38289;BME280;24092;53.370;-6.588;2022-07-24T09:46:00;99900.42;;;15.32;100.00
38289;BME280;24092;53.370;-6.588;2022-07-24T09:48:31;99898.77;;;14.62;100.00
38289;BME280;24092;53.370;-6.588;2022-07-24T09:51:02;99901.95;;;15.04;100.00
38289;BME280;24092;53.370;-6.588;2022-07-24T09:53:31;99899.05;;;14.94;100.00
38289;BME280;24092;53.370;-6.588;2022-07-24T09:56:02;99895.70;;;15.03;100.00
38289;BME280;24092;53.370;-6.588;2022-07-24T09:58:33;99894.50;;;15.18;100.00
38289;BME280;24092;53.370;-6.588;2022-07-24T10:01:01;99892.18;;;14.81;100.00
38289;BME280;24092;53.370;-6.588;2022-07-24T10:03:31;99888.95;;;15.30;100.00
38289;BME280;24092;53.370;-6.588;2022-07-24T10:06:01;99889.87;;;15.26;100.00
38289;BME280;24092;53.370;-6.588;2022-07-24T10:08:29;99887.45;;;15.06;100.00
38289;BME280;24092;53.370;-6.588;2022-07-24T10:10:56;99877.81;;;15.63;100.00
38289;BME280;24092;53.370;-6.588;2022-07-24T10:13:24;99881.74;;;15.30;100.00
38289;BME280;24092;53.370;-6.588;2022-07-24T10:15:53;99875.94;;;15.23;100.00
38289;BME280;24092;53.370;-6.588;2022-07-24T10:18:21;99870.57;;;15.50;100.00
38289;BME280;24092;53.370;-6.588;2022-07-24T10:21:03;99867.75;;;15.93;100.00
38289;BME280;24092;53.370;-6.588;2022-07-24T10:23:43;99863.93;;;16.11;100.00
38289;BME280;24092;53.370;-6.588;2022-07-24T10:26:21;99857.87;;;16.24;100.00
38289;BME280;24092;53.370;-6.588;2022-07-24T10:29:05;99855.61;;;15.80;100.00
38289;BME280;24092;53.370;-6.588;2022-07-24T10:31:32;99852.05;;;16.24;100.00
38289;BME280;24092;53.370;-6.588;2022-07-24T10:34:01;99849.11;;;16.51;100.00
38289;BME280;24092;53.370;-6.588;2022-07-24T10:36:33;99848.07;;;16.12;100.00
38289;BME280;24092;53.370;-6.588;2022-07-24T10:39:10;99846.66;;;15.95;100.00
38289;BME280;24092;53.370;-6.588;2022-07-24T10:41:39;99840.75;;;15.68;100.00
38289;BME280;24092;53.370;-6.588;2022-07-24T10:44:15;99840.12;;;15.41;100.00
38289;BME280;24092;53.370;-6.588;2022-07-24T10:47:00;99833.62;;;15.55;100.00
38289;BME280;24092;53.370;-6.588;2022-07-24T10:49:46;99828.02;;;15.82;100.00
38289;BME280;24092;53.370;-6.588;2022-07-24T10:52:26;99824.50;;;16.09;100.00
38289;BME280;24092;53.370;-6.588;2022-07-24T10:55:30;99820.40;;;16.48;100.00
38289;BME280;24092;53.370;-6.588;2022-07-24T10:58:00;99816.84;;;16.40;100.00
38289;BME280;24092;53.370;-6.588;2022-07-24T11:00:32;99805.07;;;16.63;100.00
38289;BME280;24092;53.370;-6.588;2022-07-24T11:03:04;99805.81;;;16.54;100.00
38289;BME280;24092;53.370;-6.588;2022-07-24T11:05:34;99795.14;;;16.38;100.00
38289;BME280;24092;53.370;-6.588;2022-07-24T11:08:39;99798.47;;;16.56;100.00
38289;BME280;24092;53.370;-6.588;2022-07-24T11:11:09;99793.74;;;16.67;100.00
38289;BME280;24092;53.370;-6.588;2022-07-24T11:13:44;99793.03;;;17.40;100.00
38289;BME280;24092;53.370;-6.588;2022-07-24T11:16:24;99789.40;;;17.36;100.00
38289;BME280;24092;53.370;-6.588;2022-07-24T11:19:56;99785.43;;;17.55;100.00
38289;BME280;24092;53.370;-6.588;2022-07-24T11:22:37;99776.06;;;17.30;100.00
38289;BME280;24092;53.370;-6.588;2022-07-24T11:25:07;99771.03;;;16.96;100.00
38289;BME280;24092;53.370;-6.588;2022-07-24T11:27:42;99764.85;;;17.53;100.00
38289;BME280;24092;53.370;-6.588;2022-07-24T11:30:10;99752.74;;;17.23;100.00
38289;BME280;24092;53.370;-6.588;2022-07-24T11:32:39;99757.67;;;16.94;100.00
38289;BME280;24092;53.370;-6.588;2022-07-24T11:35:07;99751.51;;;17.03;100.00
38289;BME280;24092;53.370;-6.588;2022-07-24T11:37:36;99745.15;;;17.17;100.00
38289;BME280;24092;53.370;-6.588;2022-07-24T11:40:05;99745.91;;;17.57;100.00
38289;BME280;24092;53.370;-6.588;2022-07-24T11:42:33;99744.79;;;17.03;100.00
38289;BME280;24092;53.370;-6.588;2022-07-24T11:45:02;99731.37;;;17.72;100.00
38289;BME280;24092;53.370;-6.588;2022-07-24T11:47:30;99732.86;;;17.24;100.00
38289;BME280;24092;53.370;-6.588;2022-07-24T11:49:59;99726.32;;;17.68;100.00
38289;BME280;24092;53.370;-6.588;2022-07-24T11:52:29;99721.57;;;17.83;100.00
38289;BME280;24092;53.370;-6.588;2022-07-24T11:54:58;99718.40;;;17.83;100.00
38289;BME280;24092;53.370;-6.588;2022-07-24T11:57:27;99723.17;;;17.46;100.00
38289;BME280;24092;53.370;-6.588;2022-07-24T11:59:55;99720.30;;;16.72;100.00
38289;BME280;24092;53.370;-6.588;2022-07-24T12:02:23;99725.23;;;16.73;100.00
38289;BME280;24092;53.370;-6.588;2022-07-24T12:04:51;99717.62;;;17.27;100.00
38289;BME280;24092;53.370;-6.588;2022-07-24T12:07:20;99710.82;;;16.40;100.00
38289;BME280;24092;53.370;-6.588;2022-07-24T12:09:49;99712.36;;;17.10;100.00
38289;BME280;24092;53.370;-6.588;2022-07-24T12:12:21;99704.43;;;16.88;100.00
38289;BME280;24092;53.370;-6.588;2022-07-24T12:14:48;99710.18;;;17.12;100.00
38289;BME280;24092;53.370;-6.588;2022-07-24T12:17:16;99699.74;;;16.68;100.00
38289;BME280;24092;53.370;-6.588;2022-07-24T12:19:53;99702.99;;;16.87;100.00
38289;BME280;24092;53.370;-6.588;2022-07-24T12:22:22;99699.72;;;17.11;100.00
38289;BME280;24092;53.370;-6.588;2022-07-24T12:24:50;99705.24;;;16.62;100.00
38289;BME280;24092;53.370;-6.588;2022-07-24T12:27:51;99703.05;;;17.10;100.00
38289;BME280;24092;53.370;-6.588;2022-07-24T12:30:29;99703.44;;;16.38;100.00
38289;BME280;24092;53.370;-6.588;2022-07-24T12:33:00;99700.62;;;16.57;100.00
38289;BME280;24092;53.370;-6.588;2022-07-24T12:35:29;99701.86;;;16.57;100.00
38289;BME280;24092;53.370;-6.588;2022-07-24T12:37:58;99693.96;;;15.80;100.00
38289;BME280;24092;53.370;-6.588;2022-07-24T12:40:30;99687.25;;;16.08;100.00
38289;BME280;24092;53.370;-6.588;2022-07-24T12:43:01;99688.05;;;16.57;100.00